Time;durP1;ratioP1;P1;durP2;ratioP2;P2;SDS_P1;SDS_P2;PMS_P1;PMS_P2;Temp;Humidity;BMP_temperature;BMP_pressure;BME280_temperature;BME280_humidity;BME280_pressure;Samples;Min_cycle;Max_cycle;Signal;HPM_P1;HPM_P2
2024/01/30 00:00:22;;;;;;;14.75;5.00;;;;;;;12.11;79.19;101268.31;5068805;28;20431;-78
2024/01/30 00:02:47;;;;;;;15.80;4.67;;;;;;;12.10;78.77;101271.81;5069195;28;20024;-78
2024/01/30 00:05:13;;;;;;;16.60;4.60;;;;;;;12.12;79.06;101272.72;5068985;28;20040;-78
2024/01/30 00:07:38;;;;;;;16.67;4.43;;;;;;;12.08;78.92;101270.94;5078882;28;20028;-77
2024/01/30 00:10:05;;;;;;;16.03;5.03;;;;;;;12.03;78.92;101263.88;5089587;28;20032;-78
2024/01/30 00:12:31;;;;;;;12.50;4.60;;;;;;;11.99;79.06;101269.97;5071397;28;20796;-78
2024/01/30 00:14:57;;;;;;;14.05;4.50;;;;;;;11.99;78.93;101263.78;5071004;28;20012;-78
2024/01/30 00:17:25;;;;;;;15.45;5.03;;;;;;;11.95;78.75;101268.19;5068840;28;20055;-78
2024/01/30 00:19:50;;;;;;;14.15;4.57;;;;;;;11.91;78.76;101262.00;5069002;28;20060;-78
2024/01/30 00:22:16;;;;;;;9.00;4.37;;;;;;;11.88;79.00;101263.72;5072431;28;20028;-78
2024/01/30 00:24:41;;;;;;;17.47;5.20;;;;;;;11.85;79.07;101269.00;5061883;28;20031;-77
2024/01/30 00:27:07;;;;;;;19.40;4.87;;;;;;;11.81;78.99;101261.94;5074830;28;20374;-77
2024/01/30 00:29:33;;;;;;;13.52;4.70;;;;;;;11.83;79.19;101263.72;5072693;28;20055;-78
2024/01/30 00:31:59;;;;;;;12.52;4.30;;;;;;;11.80;79.30;101268.09;5072745;28;20099;-77
2024/01/30 00:34:25;;;;;;;12.40;4.57;;;;;;;11.79;78.96;101261.91;5072864;28;20024;-77
2024/01/30 00:36:50;;;;;;;11.13;4.27;;;;;;;11.74;79.22;101253.97;5072658;28;20098;-78
2024/01/30 00:39:16;;;;;;;14.60;4.20;;;;;;;11.73;79.41;101260.13;5072547;28;20013;-78
2024/01/30 00:41:41;;;;;;;11.90;4.10;;;;;;;11.72;79.16;101258.38;5072497;28;20472;-78
2024/01/30 00:44:07;;;;;;;13.87;4.40;;;;;;;11.66;79.73;101260.94;5084569;28;20027;-78
2024/01/30 00:46:32;;;;;;;11.13;3.80;;;;;;;11.63;79.57;101274.09;5092751;28;20024;-78
2024/01/30 00:48:58;;;;;;;17.65;5.45;;;;;;;11.67;79.92;101257.41;5092983;28;20016;-77
2024/01/30 00:51:23;;;;;;;12.60;4.03;;;;;;;11.71;79.52;101253.06;5093081;28;20028;-78
2024/01/30 00:53:49;;;;;;;14.27;4.53;;;;;;;11.72;79.24;101255.72;5074495;28;20061;-77
2024/01/30 00:56:18;;;;;;;14.70;5.23;;;;;;;11.73;79.47;101249.56;5086881;28;20033;-78
2024/01/30 00:58:43;;;;;;;12.43;4.13;;;;;;;11.70;79.63;101253.94;5072260;28;20024;-77
2024/01/30 01:01:08;;;;;;;14.90;4.77;;;;;;;11.71;79.87;101253.97;5071959;28;20105;-77
2024/01/30 01:03:34;;;;;;;20.25;4.57;;;;;;;11.70;79.95;101246.03;5072394;28;20067;-78
2024/01/30 01:06:00;;;;;;;17.03;4.93;;;;;;;11.68;79.70;101253.91;5072393;28;20472;-78
2024/01/30 01:08:25;;;;;;;11.63;4.27;;;;;;;11.70;79.51;101246.91;5072342;28;20179;-78
2024/01/30 01:10:51;;;;;;;15.70;4.72;;;;;;;11.65;79.81;101259.16;5072287;28;20099;-78
2024/01/30 01:13:16;;;;;;;18.47;5.07;;;;;;;11.66;80.07;101254.78;5072243;28;20028;-78
2024/01/30 01:15:41;;;;;;;14.73;4.50;;;;;;;11.69;79.76;101255.66;5074494;28;20429;-76
2024/01/30 01:18:07;;;;;;;12.00;4.33;;;;;;;11.69;79.92;101262.72;5074936;28;20024;-78
2024/01/30 01:20:32;;;;;;;12.68;4.20;;;;;;;11.67;79.78;101267.97;5073985;28;20028;-78
2024/01/30 01:22:57;;;;;;;14.37;4.60;;;;;;;11.69;79.54;101253.03;5072166;28;20028;-77
2024/01/30 01:25:23;;;;;;;14.37;4.73;;;;;;;11.69;79.87;101258.31;5079258;28;20480;-78
2024/01/30 01:27:51;;;;;;;14.87;4.63;;;;;;;11.71;79.76;101258.34;5072820;28;20035;-77
2024/01/30 01:30:21;;;;;;;15.20;4.60;;;;;;;11.67;80.25;101261.84;5072020;28;20361;-78
2024/01/30 01:32:54;;;;;;;16.60;4.45;;;;;;;11.71;79.99;101258.34;5071864;28;20025;-78
2024/01/30 01:35:26;;;;;;;13.23;4.30;;;;;;;11.67;80.44;101267.97;5071582;28;20403;-78
2024/01/30 01:37:55;;;;;;;11.20;4.03;;;;;;;11.71;80.01;101269.78;5070786;28;20029;-77
2024/01/30 01:40:24;;;;;;;14.43;4.05;;;;;;;11.73;80.14;101268.03;5071402;28;20481;-78
2024/01/30 01:42:52;;;;;;;17.02;5.13;;;;;;;11.73;80.33;101273.31;5072768;28;20567;-78
2024/01/30 01:45:18;;;;;;;12.95;4.55;;;;;;;11.77;80.24;101277.75;5091664;28;20103;-78
2024/01/30 01:47:45;;;;;;;17.00;4.03;;;;;;;11.75;80.02;101270.69;5091548;28;20501;-78
2024/01/30 01:50:12;;;;;;;11.47;4.07;;;;;;;11.81;79.86;101272.47;5091825;28;20024;-78
2024/01/30 01:52:40;;;;;;;15.07;4.30;;;;;;;11.81;79.95;101270.72;5073362;28;20020;-77
2024/01/30 01:55:06;;;;;;;13.07;4.00;;;;;;;11.82;79.83;101271.59;5091646;28;20369;-77
2024/01/30 01:57:31;;;;;;;15.10;3.80;;;;;;;11.76;80.13;101261.88;5074714;28;20032;-79
2024/01/30 01:59:58;;;;;;;12.60;4.27;;;;;;;11.80;79.93;101268.94;5070972;28;20047;-79
2024/01/30 02:02:26;;;;;;;17.05;4.25;;;;;;;11.81;80.10;101267.22;5071201;28;20021;-79
2024/01/30 02:04:51;;;;;;;12.55;4.90;;;;;;;11.73;80.04;101265.41;5071096;28;20120;-79
2024/01/30 02:07:17;;;;;;;16.97;4.90;;;;;;;11.80;80.07;101270.72;5071088;28;20025;-79
2024/01/30 02:09:43;;;;;;;20.83;4.57;;;;;;;11.79;80.05;101261.91;5070809;28;20021;-77
2024/01/30 02:12:08;;;;;;;15.48;4.28;;;;;;;11.80;80.11;101265.44;5071038;28;20516;-77
2024/01/30 02:14:44;;;;;;;11.23;3.83;;;;;;;11.75;80.26;101255.75;5070916;28;20028;-79
2024/01/30 02:17:09;;;;;;;15.18;4.07;;;;;;;11.72;80.18;101261.00;5070788;28;20043;-79
2024/01/30 02:19:35;;;;;;;14.93;4.37;;;;;;;11.73;80.39;101257.50;5070919;28;20028;-78
2024/01/30 02:22:00;;;;;;;14.60;3.83;;;;;;;11.74;80.31;101264.53;5052834;28;20055;-79
2024/01/30 02:24:25;;;;;;;9.83;3.70;;;;;;;11.80;79.95;101262.81;5073819;28;20077;-78
2024/01/30 02:26:51;;;;;;;17.10;3.90;;;;;;;11.73;80.16;101259.22;5074692;28;20035;-78
2024/01/30 02:29:16;;;;;;;18.08;4.15;;;;;;;11.79;79.89;101264.53;5070519;28;20035;-79
2024/01/30 02:31:42;;;;;;;10.93;3.93;;;;;;;11.83;79.90;101273.38;5070573;28;20112;-78
2024/01/30 02:34:07;;;;;;;13.27;3.90;;;;;;;11.81;80.01;101275.13;5070645;28;20028;-79
2024/01/30 02:36:33;;;;;;;14.05;3.92;;;;;;;11.83;80.08;101266.34;5070505;28;20016;-79
2024/01/30 02:38:58;;;;;;;19.47;4.20;;;;;;;11.82;80.00;101268.97;5070324;28;20028;-79
2024/01/30 02:41:24;;;;;;;15.13;4.53;;;;;;;11.78;80.01;101268.94;5070254;28;20693;-79
2024/01/30 02:43:49;;;;;;;15.67;4.40;;;;;;;11.83;80.01;101270.75;5061374;28;20052;-79
2024/01/30 02:46:14;;;;;;;15.93;4.20;;;;;;;11.84;79.77;101275.13;5090565;28;20091;-79
2024/01/30 02:48:40;;;;;;;12.00;3.80;;;;;;;11.84;80.00;101264.59;5090485;28;20028;-78
2024/01/30 02:51:05;;;;;;;13.73;4.03;;;;;;;11.85;79.87;101259.34;5090509;28;20051;-78
2024/01/30 02:53:31;;;;;;;15.53;4.73;;;;;;;11.80;80.12;101257.53;5090598;28;20043;-78
2024/01/30 02:55:56;;;;;;;11.87;4.07;;;;;;;11.81;80.39;101264.56;5083536;28;20028;-78
2024/01/30 02:58:22;;;;;;;14.13;4.97;;;;;;;11.81;80.06;101257.50;5070090;28;20290;-79
2024/01/30 03:00:47;;;;;;;13.17;4.40;;;;;;;11.79;79.85;101256.63;5069631;28;20043;-79
2024/01/30 03:03:13;;;;;;;16.80;3.87;;;;;;;11.81;80.26;101264.56;5069966;28;20020;-78
2024/01/30 03:05:38;;;;;;;11.67;4.00;;;;;;;11.81;79.80;101264.56;5069820;28;20321;-79
2024/01/30 03:08:04;;;;;;;16.43;4.90;;;;;;;11.82;79.90;101261.94;5074195;28;20073;-78
2024/01/30 03:10:30;;;;;;;13.18;3.88;;;;;;;11.76;79.82;101262.78;5069996;28;20086;-78
2024/01/30 03:12:55;;;;;;;12.10;3.80;;;;;;;11.76;80.04;101249.59;5069891;28;20484;-78
2024/01/30 03:15:20;;;;;;;13.00;3.90;;;;;;;11.74;79.89;101259.25;5069899;28;20053;-79
2024/01/30 03:17:46;;;;;;;19.40;4.40;;;;;;;11.77;79.72;101254.00;5069734;28;20616;-78
2024/01/30 03:20:11;;;;;;;16.30;3.90;;;;;;;11.82;79.62;101261.06;5069520;28;20020;-78
2024/01/30 03:22:37;;;;;;;12.97;4.13;;;;;;;11.80;79.72;101263.66;5069658;28;20485;-78
2024/01/30 03:25:02;;;;;;;12.90;3.80;;;;;;;11.74;79.75;101261.91;5077021;28;20526;-79
2024/01/30 03:27:28;;;;;;;13.35;3.78;;;;;;;11.79;79.71;101261.91;5050769;28;20031;-79
2024/01/30 03:29:54;;;;;;;14.00;3.43;;;;;;;11.85;79.82;101269.88;5069610;28;20055;-79
2024/01/30 03:32:19;;;;;;;14.48;4.07;;;;;;;11.82;79.95;101274.25;5069807;28;20033;-78
2024/01/30 03:34:44;;;;;;;11.67;4.07;;;;;;;11.78;79.96;101271.59;5051577;28;20040;-78
2024/01/30 03:37:10;;;;;;;10.93;3.60;;;;;;;11.83;79.82;101257.53;5069565;28;20593;-79
2024/01/30 03:39:36;;;;;;;12.63;3.80;;;;;;;11.82;80.00;101276.88;5069412;28;20021;-78
2024/01/30 03:42:02;;;;;;;11.73;3.88;;;;;;;11.87;79.94;101281.34;5069381;28;20029;-78
2024/01/30 03:44:27;;;;;;;17.23;4.77;;;;;;;11.85;79.78;101293.63;5083957;28;20058;-78
2024/01/30 03:46:52;;;;;;;11.20;3.87;;;;;;;11.79;80.04;101288.28;5089768;28;20024;-79
2024/01/30 03:49:18;;;;;;;18.27;4.20;;;;;;;11.82;80.12;101288.34;5071529;28;20568;-78
2024/01/30 03:51:44;;;;;;;18.00;3.57;;;;;;;11.82;79.69;101287.44;5089683;28;20039;-78
2024/01/30 03:54:09;;;;;;;8.98;3.47;;;;;;;11.87;79.65;101286.63;5071447;28;20437;-78
2024/01/30 03:56:35;;;;;;;13.33;3.33;;;;;;;11.88;79.51;101283.09;5081376;28;20017;-79
2024/01/30 03:59:02;;;;;;;18.20;4.43;;;;;;;11.86;79.85;101283.94;5073436;28;20031;-79
2024/01/30 04:01:28;;;;;;;13.00;3.30;;;;;;;11.81;80.16;101283.03;5073217;28;20037;-78
2024/01/30 04:03:53;;;;;;;13.77;3.50;;;;;;;11.84;79.87;101293.63;5073029;28;20030;-79
2024/01/30 04:06:18;;;;;;;18.00;3.43;;;;;;;11.84;79.92;101283.06;5073348;28;20056;-78
2024/01/30 04:08:44;;;;;;;12.17;3.80;;;;;;;11.89;79.67;101289.25;5092292;28;20097;-79
2024/01/30 04:11:09;;;;;;;14.35;3.70;;;;;;;11.89;79.72;101283.97;5093734;28;20103;-79
2024/01/30 04:13:35;;;;;;;9.73;3.40;;;;;;;11.88;79.54;101292.75;5093765;28;20050;-79
2024/01/30 04:16:01;;;;;;;14.55;3.95;;;;;;;11.90;79.78;101285.72;5093466;28;20173;-79
2024/01/30 04:18:27;;;;;;;15.47;3.60;;;;;;;11.90;79.52;101283.09;5093305;28;20104;-79
2024/01/30 04:20:52;;;;;;;17.98;3.92;;;;;;;11.92;79.80;101289.25;5093455;28;20024;-79
2024/01/30 04:23:18;;;;;;;14.80;3.90;;;;;;;11.91;79.54;101292.78;5092939;28;20051;-78
2024/01/30 04:25:43;;;;;;;16.43;4.10;;;;;;;11.85;79.85;101288.38;5080173;28;20042;-78
2024/01/30 04:28:11;;;;;;;19.07;3.70;;;;;;;11.89;79.75;101294.53;5073180;28;20039;-78
2024/01/30 04:30:37;;;;;;;19.53;3.93;;;;;;;11.92;79.50;101294.53;5072777;28;20267;-78
2024/01/30 04:33:03;;;;;;;14.60;3.45;;;;;;;11.90;79.54;101301.56;5072950;28;20507;-79
2024/01/30 04:35:28;;;;;;;15.27;3.73;;;;;;;11.92;79.57;101305.09;5073009;28;20366;-79
2024/01/30 04:37:54;;;;;;;15.15;4.03;;;;;;;11.88;79.58;101312.13;5072794;28;20063;-78
2024/01/30 04:40:21;;;;;;;15.20;3.40;;;;;;;11.88;79.23;101317.41;5072633;28;20107;-78
2024/01/30 04:42:46;;;;;;;14.90;3.40;;;;;;;11.89;79.65;101319.19;5073234;28;20629;-79
2024/01/30 04:45:12;;;;;;;11.83;3.90;;;;;;;11.89;79.62;101326.19;5092809;28;20032;-79
2024/01/30 04:47:38;;;;;;;15.63;3.80;;;;;;;11.89;79.26;101328.84;5092935;28;20112;-78
2024/01/30 04:50:06;;;;;;;17.67;3.92;;;;;;;11.85;79.77;101322.66;5093036;28;20054;-79
2024/01/30 04:52:31;;;;;;;18.48;4.15;;;;;;;11.87;79.54;101326.19;5092936;28;20040;-79
2024/01/30 04:54:57;;;;;;;16.60;4.60;;;;;;;11.83;79.55;101321.78;5092832;28;20039;-78
2024/01/30 04:57:22;;;;;;;12.80;3.97;;;;;;;11.85;79.84;101329.69;5076460;28;20277;-79
2024/01/30 04:59:48;;;;;;;17.17;3.70;;;;;;;11.85;79.41;101327.06;5054276;28;20040;-78
2024/01/30 05:02:14;;;;;;;14.43;3.90;;;;;;;11.85;79.69;101324.41;5072105;28;20048;-79
2024/01/30 05:04:41;;;;;;;14.25;3.38;;;;;;;11.78;79.61;101332.28;5072393;28;20417;-78
2024/01/30 05:07:06;;;;;;;14.40;3.72;;;;;;;11.83;79.57;101337.63;5072103;28;20032;-78
2024/01/30 05:09:31;;;;;;;15.60;3.50;;;;;;;11.79;79.60;101335.78;5072414;28;20035;-78
2024/01/30 05:11:58;;;;;;;14.67;3.40;;;;;;;11.78;79.72;101341.94;5072506;28;20488;-78
2024/01/30 05:14:23;;;;;;;14.60;4.10;;;;;;;11.76;79.39;101347.22;5072235;28;20078;-79
2024/01/30 05:16:49;;;;;;;9.27;3.57;;;;;;;11.77;79.17;101349.00;5072092;28;20037;-78
2024/01/30 05:19:14;;;;;;;17.30;3.88;;;;;;;11.73;79.35;101352.47;5072113;28;20028;-79
2024/01/30 05:21:40;;;;;;;15.47;3.83;;;;;;;11.75;79.40;101361.28;5071950;28;20036;-78
2024/01/30 05:24:06;;;;;;;16.35;3.85;;;;;;;11.71;79.84;101358.59;5072450;28;20021;-78
2024/01/30 05:26:32;;;;;;;11.77;3.60;;;;;;;11.68;79.86;101359.44;5078975;28;20063;-78
2024/01/30 05:28:57;;;;;;;16.58;3.70;;;;;;;11.73;79.66;101363.03;5071987;28;20055;-78
2024/01/30 05:31:23;;;;;;;15.57;3.87;;;;;;;11.72;79.53;101365.66;5072074;28;20058;-79
2024/01/30 05:33:48;;;;;;;13.30;3.60;;;;;;;11.74;79.39;101372.72;5071922;28;20540;-79
2024/01/30 05:36:14;;;;;;;16.85;4.07;;;;;;;11.77;79.60;101362.19;5071807;28;20035;-78
2024/01/30 05:38:42;;;;;;;16.60;3.80;;;;;;;11.73;79.48;101360.41;5071829;28;20032;-78
2024/01/30 05:41:08;;;;;;;13.88;3.75;;;;;;;11.75;79.64;101370.94;5071551;28;20408;-78
2024/01/30 05:43:34;;;;;;;15.40;3.33;;;;;;;11.76;79.63;101363.06;5078982;28;20036;-79
2024/01/30 05:45:59;;;;;;;14.43;4.13;;;;;;;11.77;79.59;101364.81;5073458;28;20160;-78
2024/01/30 05:48:24;;;;;;;19.33;4.40;;;;;;;11.78;79.46;101360.41;5091977;28;20059;-79
2024/01/30 05:50:50;;;;;;;14.87;4.17;;;;;;;11.80;79.56;101360.44;5091941;28;20016;-79
2024/01/30 05:53:15;;;;;;;16.10;3.70;;;;;;;11.77;79.72;101359.56;5091792;28;20020;-79
2024/01/30 05:55:41;;;;;;;14.33;3.07;;;;;;;11.77;79.96;101359.56;5082889;28;20686;-78
2024/01/30 05:58:06;;;;;;;13.33;4.10;;;;;;;11.80;79.74;101357.81;5071345;28;20259;-78
2024/01/30 06:00:31;;;;;;;14.47;3.70;;;;;;;11.78;79.88;101358.69;5070932;28;20047;-78
2024/01/30 06:02:57;;;;;;;15.83;3.80;;;;;;;11.82;79.77;101358.69;5071283;28;20043;-78
2024/01/30 06:05:22;;;;;;;15.50;4.10;;;;;;;11.82;79.74;101363.97;5071076;28;20067;-79
2024/01/30 06:07:47;;;;;;;11.10;3.45;;;;;;;11.83;79.86;101360.47;5071321;28;20594;-78
2024/01/30 06:10:13;;;;;;;18.73;4.10;;;;;;;11.83;79.53;101373.66;5071447;28;20061;-78
2024/01/30 06:12:38;;;;;;;19.10;4.97;;;;;;;11.81;79.93;101381.56;5053203;28;20025;-79
2024/01/30 06:15:04;;;;;;;19.67;4.77;;;;;;;11.79;79.80;101375.38;5071012;28;20028;-79
2024/01/30 06:17:30;;;;;;;11.52;3.55;;;;;;;11.80;79.83;101377.16;5052922;28;20354;-79
2024/01/30 06:19:55;;;;;;;14.70;3.87;;;;;;;11.79;79.95;101380.66;5070111;28;20058;-78
2024/01/30 06:22:20;;;;;;;17.00;4.07;;;;;;;11.76;80.18;101370.06;5070889;28;20099;-79
2024/01/30 06:24:48;;;;;;;12.50;3.10;;;;;;;11.79;80.09;101378.00;5076622;28;20073;-78
2024/01/30 06:27:14;;;;;;;14.63;3.73;;;;;;;11.79;79.87;101378.00;5071655;28;20039;-78
2024/01/30 06:29:40;;;;;;;15.77;4.15;;;;;;;11.77;80.11;101380.66;5070646;28;20020;-79
2024/01/30 06:32:06;;;;;;;14.60;4.07;;;;;;;11.75;79.99;101377.13;5070904;28;20035;-78
2024/01/30 06:34:31;;;;;;;14.77;3.80;;;;;;;11.77;79.79;101380.66;5070955;28;20028;-79
2024/01/30 06:36:57;;;;;;;12.70;3.25;;;;;;;11.74;80.07;101396.47;5070624;28;20028;-78
2024/01/30 06:39:23;;;;;;;14.67;3.90;;;;;;;11.77;79.51;101385.03;5068706;28;20036;-79
2024/01/30 06:41:48;;;;;;;16.77;3.53;;;;;;;11.77;80.16;101391.22;5063222;28;20537;-79
2024/01/30 06:44:14;;;;;;;16.90;4.40;;;;;;;11.73;79.83;101394.69;5073729;28;20029;-79
2024/01/30 06:46:39;;;;;;;17.27;4.50;;;;;;;11.73;80.07;101405.25;5068005;28;20024;-78
2024/01/30 06:49:05;;;;;;;17.47;3.77;;;;;;;11.74;80.12;101407.03;5067994;28;20149;-78
2024/01/30 06:51:30;;;;;;;14.15;3.60;;;;;;;11.73;80.06;101409.63;5069447;28;20059;-79
2024/01/30 06:53:55;;;;;;;16.60;4.00;;;;;;;11.72;79.98;101403.50;5069470;28;20028;-79
2024/01/30 06:56:21;;;;;;;14.23;4.10;;;;;;;11.70;79.85;101410.50;5067755;28;20043;-79
2024/01/30 06:58:48;;;;;;;16.55;3.60;;;;;;;11.66;80.22;101413.97;5056110;28;20029;-79
2024/01/30 07:01:14;;;;;;;16.67;3.97;;;;;;;11.65;79.92;101412.19;5066461;28;20045;-78
2024/01/30 07:03:40;;;;;;;13.73;3.50;;;;;;;11.66;80.12;101411.31;5060116;28;20389;-79
2024/01/30 07:06:09;;;;;;;14.30;3.55;;;;;;;11.66;80.18;101413.97;5054491;28;20048;-78
2024/01/30 07:08:34;;;;;;;16.17;3.90;;;;;;;11.59;80.17;101407.75;5063730;28;20029;-78
2024/01/30 07:10:59;;;;;;;14.97;4.00;;;;;;;11.62;80.04;101409.53;5055389;28;20128;-78
2024/01/30 07:13:25;;;;;;;17.53;3.87;;;;;;;11.62;80.34;101412.16;5065637;28;20030;-79
2024/01/30 07:15:50;;;;;;;16.00;3.77;;;;;;;11.64;80.14;101420.97;5051245;28;20168;-78
2024/01/30 07:18:16;;;;;;;15.38;4.00;;;;;;;11.64;80.28;101415.69;5067422;28;20032;-78
2024/01/30 07:20:45;;;;;;;12.07;3.50;;;;;;;11.63;80.09;101417.47;5069570;28;20481;-79
2024/01/30 07:23:16;;;;;;;12.88;3.75;;;;;;;11.61;80.03;101420.94;5077163;28;20017;-78
2024/01/30 07:25:42;;;;;;;12.50;3.80;;;;;;;11.64;80.22;101426.25;5064926;28;20038;-79
2024/01/30 07:28:12;;;;;;;18.40;4.88;;;;;;;11.65;79.92;101430.66;5062578;28;20044;-78
2024/01/30 07:30:37;;;;;;;13.35;4.07;;;;;;;11.67;80.05;101430.69;5049509;28;20041;-79
2024/01/30 07:33:03;;;;;;;19.70;4.30;;;;;;;11.67;80.03;101434.19;5049833;28;20696;-79
2024/01/30 07:35:28;;;;;;;18.60;4.20;;;;;;;11.61;80.15;101439.41;5052207;28;20029;-78
2024/01/30 07:37:54;;;;;;;15.45;4.53;;;;;;;11.66;79.82;101439.47;5049770;28;20082;-78
2024/01/30 07:40:19;;;;;;;15.07;4.00;;;;;;;11.63;80.04;101441.22;5049146;28;20400;-78
2024/01/30 07:42:44;;;;;;;20.90;4.00;;;;;;;11.68;80.06;101448.28;5050349;28;20409;-77
2024/01/30 07:45:10;;;;;;;22.63;4.03;;;;;;;11.69;79.92;101445.66;5089681;28;20036;-77
2024/01/30 07:47:35;;;;;;;24.10;4.65;;;;;;;11.71;80.21;101454.50;5085964;28;20028;-79
2024/01/30 07:50:01;;;;;;;18.47;3.57;;;;;;;11.73;79.84;101452.75;5069596;28;20060;-78
2024/01/30 07:52:26;;;;;;;17.80;3.70;;;;;;;11.74;80.05;101457.16;5051640;28;20029;-77
2024/01/30 07:54:52;;;;;;;15.00;3.60;;;;;;;11.75;80.09;101461.56;5069182;28;20046;-78
2024/01/30 07:57:18;;;;;;;20.38;4.68;;;;;;;11.76;80.00;101463.34;5069371;28;20495;-79
2024/01/30 07:59:44;;;;;;;19.43;4.53;;;;;;;11.80;80.07;101464.22;5069302;28;20033;-78
2024/01/30 08:02:10;;;;;;;17.48;3.83;;;;;;;11.83;79.93;101474.84;5069239;28;20182;-78
2024/01/30 08:04:36;;;;;;;15.57;3.80;;;;;;;11.84;80.26;101470.44;5069304;28;20033;-78
2024/01/30 08:07:02;;;;;;;26.40;4.68;;;;;;;11.88;79.97;101475.78;5055924;28;20060;-78
2024/01/30 08:09:27;;;;;;;15.30;4.47;;;;;;;11.94;79.91;101476.69;5079815;28;20070;-77
2024/01/30 08:11:52;;;;;;;14.60;4.00;;;;;;;11.98;79.78;101468.84;5069369;28;20020;-78
2024/01/30 08:14:18;;;;;;;18.50;4.13;;;;;;;12.05;79.58;101473.31;5069378;28;20024;-78
2024/01/30 08:16:43;;;;;;;16.30;4.05;;;;;;;12.09;79.61;101468.97;5069172;28;20020;-77
2024/01/30 08:19:09;;;;;;;18.43;3.83;;;;;;;12.13;79.11;101467.22;5069152;28;20036;-78
2024/01/30 08:21:36;;;;;;;17.77;4.27;;;;;;;12.18;79.13;101454.97;5069319;28;20033;-78
2024/01/30 08:24:03;;;;;;;18.10;4.18;;;;;;;12.22;79.22;101455.84;5051291;28;20108;-78
2024/01/30 08:26:29;;;;;;;18.88;4.45;;;;;;;12.21;79.10;101468.19;5075634;28;20039;-78
2024/01/30 08:28:54;;;;;;;17.27;4.33;;;;;;;12.23;79.01;101469.09;5051036;28;20408;-78
2024/01/30 08:31:19;;;;;;;18.83;3.90;;;;;;;12.24;78.94;101477.88;5069154;28;20025;-78
2024/01/30 08:33:45;;;;;;;16.75;3.92;;;;;;;12.22;78.98;101477.88;5069252;28;20021;-78
2024/01/30 08:36:10;;;;;;;16.97;5.13;;;;;;;12.26;78.84;101471.75;5069186;28;20134;-78
2024/01/30 08:38:35;;;;;;;16.33;3.70;;;;;;;12.27;78.82;101459.41;5069163;28;20033;-78
2024/01/30 08:41:01;;;;;;;14.70;3.80;;;;;;;12.30;78.38;101465.63;5068986;28;20353;-78
2024/01/30 08:43:26;;;;;;;16.10;4.03;;;;;;;12.34;78.39;101477.09;5078472;28;20099;-78
2024/01/30 08:45:52;;;;;;;16.97;3.13;;;;;;;12.41;78.27;101470.09;5072588;28;20298;-77
2024/01/30 08:48:17;;;;;;;15.60;3.80;;;;;;;12.51;77.92;101479.88;5072930;28;20373;-79
2024/01/30 08:50:43;;;;;;;16.23;4.83;;;;;;;12.60;77.56;101474.63;5072812;28;20027;-79
2024/01/30 08:53:08;;;;;;;17.63;3.60;;;;;;;12.71;77.45;101476.50;5054835;28;20099;-79
2024/01/30 08:55:34;;;;;;;16.43;3.90;;;;;;;12.83;77.11;101476.56;5072268;28;20033;-78
2024/01/30 08:57:59;;;;;;;12.00;3.27;;;;;;;12.94;76.92;101478.41;5072628;28;20450;-78
2024/01/30 09:00:25;;;;;;;16.97;3.63;;;;;;;13.04;76.47;101477.56;5072055;28;20048;-78
2024/01/30 09:02:50;;;;;;;16.65;3.92;;;;;;;13.18;76.22;101493.50;5072375;28;20033;-78
2024/01/30 09:05:15;;;;;;;14.80;3.57;;;;;;;13.30;75.78;101482.09;5072244;28;20025;-77
2024/01/30 09:07:41;;;;;;;22.30;3.57;;;;;;;13.45;75.47;101492.78;5082505;28;20024;-77
2024/01/30 09:10:06;;;;;;;12.33;3.23;;;;;;;13.52;75.06;101488.38;5092748;28;20468;-78
2024/01/30 09:12:32;;;;;;;15.13;3.45;;;;;;;13.58;75.02;101492.78;5092656;28;20028;-78
2024/01/30 09:14:57;;;;;;;16.50;3.50;;;;;;;13.63;74.40;101501.66;5092388;28;20020;-79
2024/01/30 09:17:23;;;;;;;15.87;4.07;;;;;;;13.69;74.57;101498.13;5092492;28;20024;-78
2024/01/30 09:19:48;;;;;;;17.52;3.45;;;;;;;13.73;74.46;101498.16;5092256;28;20491;-78
2024/01/30 09:22:13;;;;;;;20.03;3.90;;;;;;;13.81;74.17;101503.47;5092370;28;20015;-78
2024/01/30 09:24:40;;;;;;;12.23;3.07;;;;;;;13.83;74.39;101507.00;5090103;28;20494;-78
2024/01/30 09:27:05;;;;;;;13.02;2.70;;;;;;;13.91;73.74;101507.03;5073977;28;20024;-77
2024/01/30 09:29:32;;;;;;;10.93;3.23;;;;;;;14.02;73.73;101505.25;5071900;28;20613;-78
2024/01/30 09:31:58;;;;;;;11.35;2.70;;;;;;;14.05;72.68;101510.56;5072184;28;20028;-78
2024/01/30 09:34:23;;;;;;;11.83;3.27;;;;;;;13.96;71.51;101507.91;5054084;28;20036;-78
2024/01/30 09:36:49;;;;;;;13.70;2.90;;;;;;;14.01;72.18;101507.94;5071736;28;20036;-78
2024/01/30 09:39:15;;;;;;;16.03;3.27;;;;;;;14.01;72.33;101508.78;5071725;28;20275;-78
2024/01/30 09:41:48;;;;;;;12.52;3.13;;;;;;;14.04;71.57;101506.16;5071286;28;20036;-78
2024/01/30 09:44:16;;;;;;;12.70;2.80;;;;;;;14.08;70.19;101509.69;5084434;28;20039;-77
2024/01/30 09:46:42;;;;;;;12.25;2.53;;;;;;;14.17;70.73;101503.53;5091918;28;20105;-78
2024/01/30 09:49:09;;;;;;;18.08;2.97;;;;;;;14.20;70.54;101504.41;5091967;28;20028;-78
2024/01/30 09:51:35;;;;;;;14.68;2.80;;;;;;;14.28;70.56;101511.50;5091918;28;20043;-78
2024/01/30 09:54:02;;;;;;;17.77;3.13;;;;;;;14.33;69.72;101510.59;5090341;28;20142;-78
2024/01/30 09:56:29;;;;;;;11.00;2.63;;;;;;;14.33;69.31;101515.88;5082276;28;20025;-78
2024/01/30 09:58:54;;;;;;;14.00;3.33;;;;;;;14.31;69.25;101517.66;5071082;28;20024;-78
2024/01/30 10:01:20;;;;;;;11.73;2.60;;;;;;;14.30;69.24;101515.88;5070956;28;20040;-78
2024/01/30 10:03:45;;;;;;;13.82;2.90;;;;;;;14.25;68.87;101516.78;5071250;28;20070;-79
2024/01/30 10:06:11;;;;;;;10.63;2.23;;;;;;;14.10;67.91;101512.31;5071151;28;20037;-79
2024/01/30 10:08:37;;;;;;;13.32;2.38;;;;;;;14.09;68.16;101510.56;5071138;28;20028;-78
2024/01/30 10:11:03;;;;;;;10.95;2.83;;;;;;;14.11;68.29;101509.69;5071307;28;20488;-78
2024/01/30 10:13:29;;;;;;;10.43;2.70;;;;;;;14.26;68.59;101505.31;5071284;28;20035;-78
2024/01/30 10:15:55;;;;;;;14.00;3.20;;;;;;;14.32;68.28;101506.16;5071127;28;20031;-79
2024/01/30 10:18:22;;;;;;;13.93;2.45;;;;;;;14.53;67.84;101504.41;5070995;28;20031;-79
2024/01/30 10:20:47;;;;;;;12.40;2.83;;;;;;;14.67;67.39;101498.22;5070892;28;20509;-78
2024/01/30 10:23:13;;;;;;;12.53;3.30;;;;;;;14.70;66.25;101495.56;5070929;28;20024;-79
2024/01/30 10:25:38;;;;;;;13.73;2.43;;;;;;;14.81;66.41;101496.44;5080939;28;20116;-79
2024/01/30 10:28:04;;;;;;;10.53;2.30;;;;;;;14.89;66.56;101494.69;5091247;28;20031;-80
2024/01/30 10:30:30;;;;;;;12.27;2.55;;;;;;;14.96;66.10;101494.66;5090936;28;20031;-78
2024/01/30 10:32:55;;;;;;;12.67;2.63;;;;;;;15.03;66.27;101494.66;5091247;28;20381;-79
2024/01/30 10:35:21;;;;;;;16.13;3.03;;;;;;;15.14;66.10;101497.25;5091138;28;20028;-77
2024/01/30 10:37:49;;;;;;;13.27;2.67;;;;;;;15.24;65.40;101494.56;5075027;28;20020;-78
2024/01/30 10:40:15;;;;;;;15.07;2.88;;;;;;;15.27;65.15;101483.94;5070613;28;20056;-79
2024/01/30 10:42:45;;;;;;;18.13;3.03;;;;;;;15.29;64.22;101487.47;5070231;28;20020;-77
2024/01/30 10:45:17;;;;;;;8.43;2.60;;;;;;;15.32;64.27;101484.81;5072307;28;20667;-78
2024/01/30 10:47:54;;;;;;;12.02;2.67;;;;;;;15.34;64.33;101480.41;5090757;28;20073;-77
2024/01/30 10:50:20;;;;;;;10.60;2.67;;;;;;;15.38;64.03;101474.19;5089483;28;20107;-78
2024/01/30 10:52:47;;;;;;;14.95;3.47;;;;;;;15.45;63.28;101478.56;5090849;28;20116;-77
2024/01/30 10:55:15;;;;;;;14.83;3.40;;;;;;;15.50;63.86;101482.06;5090694;28;20050;-79
2024/01/30 10:57:41;;;;;;;13.02;2.53;;;;;;;15.53;64.10;101483.84;5083970;28;20115;-78
2024/01/30 11:00:11;;;;;;;14.50;3.00;;;;;;;15.60;64.04;101482.03;5069726;28;20396;-78
2024/01/30 11:02:43;;;;;;;14.20;2.97;;;;;;;15.63;63.64;101476.69;5069993;28;20048;-78
2024/01/30 11:05:09;;;;;;;11.73;2.75;;;;;;;15.77;64.03;101473.97;5051730;28;20034;-78
2024/01/30 11:07:35;;;;;;;8.85;2.45;;;;;;;15.89;63.85;101473.03;5070206;28;20028;-79
2024/01/30 11:10:03;;;;;;;12.00;2.80;;;;;;;15.93;63.43;101478.31;5070354;28;20090;-79